Flight Track Log - Related Links

Times and Time Zones

All times are in EDT time to prevent confusion due to time zone crossing. See the N775NC flight status page for this flight to view local times or setup timezone preferences in your user account.

Time Position Orientation Groundspeed Altitude Reporting Facility
EDT Latitude Longitude Course Direction KTS MPH feet Rate Location/Type
Fri 04:00:50 PM 30.5556 -87.1789 15° North 189 217 2,300  Level Jacksonville Center
Fri 04:01:50 PM 30.6092 -87.1381 33° Northeast 211 243 4,400 1,800 Climbing Jacksonville Center
Fri 04:02:00 PM 30.7197 -86.9803 25° Northeast  Level Estimated
Fri 04:02:50 PM 30.6811 -87.1072 20° North 236 272 5,900  Level Jacksonville Center
Fri 04:03:00 PM 30.8190 -86.9578 11° North  Level FlightAware Approximate
Fri 04:03:50 PM 30.7456 -87.0497 37° Northeast 272 313 8,500  Level Jacksonville Center
Fri 04:04:00 PM 30.9003 -86.8876 23° Northeast  Level Estimated
Fri 04:04:50 PM 30.8044 -86.9750 47° Northeast 285 328 10,200  Level Jacksonville Center
Fri 04:05:00 PM 30.9995 -86.8641 11° North  Level FlightAware Approximate
Fri 04:05:50 PM 30.8858 -86.9083 35° Northeast 317 365 11,200  Level Jacksonville Center
Fri 04:06:50 PM 30.9736 -86.8417 33° Northeast 351 404 13,300 1,933 Climbing Jacksonville Center
Fri 04:08:50 PM 31.1614 -86.7017 33° Northeast 392 451 17,000 1,733 Climbing Jacksonville Center
Fri 04:09:50 PM 31.2617 -86.6303 31° Northeast 403 464 18,500 1,500 Climbing Jacksonville Center
Fri 04:10:50 PM 31.3603 -86.5492 35° Northeast 417 480 20,000 1,400 Climbing Jacksonville Center
Fri 04:11:50 PM 31.4606 -86.4678 35° Northeast 430 495 21,300 1,300 Climbing Jacksonville Center
Fri 04:12:50 PM 31.5714 -86.3892 31° Northeast 443 510 22,600 876 Climbing Jacksonville Center
Fri 04:14:55 PM 31.8092 -86.2042 33° Northeast 533 613 24,000 876 Climbing Atlanta Center
Fri 04:15:55 PM 31.9422 -86.1094 31° Northeast 518 596 25,300 1,100 Climbing Atlanta Center
Fri 04:16:55 PM 32.0606 -86.0167 34° Northeast 513 590 26,200 750 Climbing Atlanta Center
Fri 04:17:55 PM 32.1811 -85.9211 34° Northeast 513 590 26,800 400 Climbing Atlanta Center
Fri 04:18:55 PM 32.3036 -85.8131 37° Northeast 524 603 27,000 100 Climbing Atlanta Center
Fri 04:19:55 PM 32.4303 -85.7122 34° Northeast 535 616 27,000 -100 Level Atlanta Center
Fri 04:20:55 PM 32.5550 -85.6061 36° Northeast 542 624 26,800 -1,000 Descending Atlanta Center
Fri 04:21:55 PM 32.6731 -85.5047 36° Northeast 542 624 25,000 -2,250 Descending Atlanta Center
Fri 04:22:55 PM 32.7869 -85.4078 36° Northeast 520 598 22,300 -2,500 Descending Atlanta Center
Fri 04:23:55 PM 32.9006 -85.3253 31° Northeast 500 575 20,000 -2,550 Descending Atlanta Center
Fri 04:24:55 PM 33.0036 -85.2403 35° Northeast 473 544 17,200 -2,800 Descending Atlanta Center
Fri 04:25:55 PM 33.1003 -85.1572 36° Northeast 448 516 14,400 -1,600 Descending Atlanta Center
Fri 04:26:55 PM 33.1764 -85.0489 50° Northeast 418 481 14,000 -300 Descending Atlanta Center
Fri 04:27:55 PM 33.2586 -84.9381 48° Northeast 426 490 13,800 -650 Descending Atlanta Center
Fri 04:28:55 PM 33.3408 -84.8344 46° Northeast 432 497 12,700 -900 Descending Atlanta Center
Fri 04:29:55 PM 33.4167 -84.7306 49° Northeast 421 484 12,000 -350 Descending Atlanta Center
Fri 04:30:55 PM 33.4903 -84.6367 47° Northeast 397 457 12,000 -250 Level Atlanta Center
Fri 04:31:55 PM 33.5406 -84.5447 57° Northeast 342 394 11,500 -1,050 Descending Atlanta Center
Fri 04:32:55 PM 33.5514 -84.4525 82° East 280 322 9,900 -1,576 Descending Atlanta Center
Fri 04:33:53 PM 33.5500 -84.3667 91° East 269 310 8,400 -1,881 Descending Atlanta TRACON
Fri 04:34:53 PM 33.5500 -84.2833 90° East 257 296 6,200 -1,950 Descending Atlanta TRACON
Fri 04:35:53 PM 33.5667 -84.2000 76° East 257 296 4,500 -1,579 Descending Atlanta TRACON
Fri 04:36:47 PM 33.6000 -84.2500 309° West 202 232 3,200 -947 Descending Atlanta TRACON
Fri 04:37:47 PM 33.6167 -84.3167 287° West 187 215 2,700 -700 Descending Atlanta TRACON
Fri 04:38:47 PM 33.6167 -84.3667 270° West 153 176 1,800 -900 Descending Atlanta TRACON

Login

Don't have an account? Register now (free) for customized features, flight alerts, and more!